sensor_id;sensor_type;location;lat;lon;timestamp;temperature;humidity
11059;DHT22;5582;59.272;15.220;2022-08-18T00:00:45;18.30;1.40
11059;DHT22;5582;59.272;15.220;2022-08-18T00:03:10;18.30;1.40
11059;DHT22;5582;59.272;15.220;2022-08-18T00:05:37;18.20;1.40
11059;DHT22;5582;59.272;15.220;2022-08-18T00:08:04;18.20;1.40
11059;DHT22;5582;59.272;15.220;2022-08-18T00:10:30;18.20;1.40
11059;DHT22;5582;59.272;15.220;2022-08-18T00:12:57;18.20;1.40
11059;DHT22;5582;59.272;15.220;2022-08-18T00:15:23;18.10;1.40
11059;DHT22;5582;59.272;15.220;2022-08-18T00:17:49;18.10;1.40
11059;DHT22;5582;59.272;15.220;2022-08-18T00:20:21;18.10;1.40
11059;DHT22;5582;59.272;15.220;2022-08-18T00:22:48;18.10;1.40
11059;DHT22;5582;59.272;15.220;2022-08-18T00:25:15;18.10;1.40
11059;DHT22;5582;59.272;15.220;2022-08-18T00:27:42;18.10;1.40
11059;DHT22;5582;59.272;15.220;2022-08-18T00:30:15;18.10;1.40
11059;DHT22;5582;59.272;15.220;2022-08-18T00:32:52;18.20;1.40
11059;DHT22;5582;59.272;15.220;2022-08-18T00:35:30;18.20;1.40
11059;DHT22;5582;59.272;15.220;2022-08-18T00:37:59;18.20;1.40
11059;DHT22;5582;59.272;15.220;2022-08-18T00:40:29;18.20;1.40
11059;DHT22;5582;59.272;15.220;2022-08-18T00:43:02;18.20;1.40
11059;DHT22;5582;59.272;15.220;2022-08-18T00:45:40;18.20;1.40
11059;DHT22;5582;59.272;15.220;2022-08-18T00:48:07;18.20;1.40
11059;DHT22;5582;59.272;15.220;2022-08-18T00:50:48;18.20;1.40
11059;DHT22;5582;59.272;15.220;2022-08-18T00:56:08;18.10;1.40
11059;DHT22;5582;59.272;15.220;2022-08-18T00:58:43;18.20;1.40
11059;DHT22;5582;59.272;15.220;2022-08-18T01:01:10;18.20;1.40
11059;DHT22;5582;59.272;15.220;2022-08-18T01:03:38;18.20;1.40
11059;DHT22;5582;59.272;15.220;2022-08-18T01:06:32;18.20;1.40
11059;DHT22;5582;59.272;15.220;2022-08-18T01:09:00;18.20;1.40
11059;DHT22;5582;59.272;15.220;2022-08-18T01:11:27;18.20;1.40
11059;DHT22;5582;59.272;15.220;2022-08-18T01:13:53;18.20;1.40
11059;DHT22;5582;59.272;15.220;2022-08-18T01:16:18;18.20;1.40
11059;DHT22;5582;59.272;15.220;2022-08-18T01:19:03;18.20;1.40
11059;DHT22;5582;59.272;15.220;2022-08-18T01:21:51;18.20;1.40
11059;DHT22;5582;59.272;15.220;2022-08-18T01:24:26;18.10;1.40
11059;DHT22;5582;59.272;15.220;2022-08-18T01:27:12;18.10;1.40
11059;DHT22;5582;59.272;15.220;2022-08-18T01:29:48;18.00;1.40
11059;DHT22;5582;59.272;15.220;2022-08-18T01:32:20;18.00;1.40
11059;DHT22;5582;59.272;15.220;2022-08-18T01:34:48;17.90;1.40
11059;DHT22;5582;59.272;15.220;2022-08-18T01:37:16;17.80;1.40
11059;DHT22;5582;59.272;15.220;2022-08-18T01:39:43;17.80;1.40
11059;DHT22;5582;59.272;15.220;2022-08-18T01:42:11;17.80;1.40
11059;DHT22;5582;59.272;15.220;2022-08-18T01:44:37;17.80;1.40
11059;DHT22;5582;59.272;15.220;2022-08-18T01:47:07;17.70;1.40
11059;DHT22;5582;59.272;15.220;2022-08-18T01:49:33;17.70;1.40
11059;DHT22;5582;59.272;15.220;2022-08-18T01:51:58;17.60;1.40
11059;DHT22;5582;59.272;15.220;2022-08-18T01:54:24;17.60;1.40
11059;DHT22;5582;59.272;15.220;2022-08-18T01:56:54;17.60;1.40
11059;DHT22;5582;59.272;15.220;2022-08-18T01:59:20;17.50;1.40
11059;DHT22;5582;59.272;15.220;2022-08-18T02:01:46;17.50;1.40
11059;DHT22;5582;59.272;15.220;2022-08-18T02:04:14;17.40;1.40
11059;DHT22;5582;59.272;15.220;2022-08-18T02:06:41;17.40;1.40
11059;DHT22;5582;59.272;15.220;2022-08-18T02:09:07;17.40;1.40
11059;DHT22;5582;59.272;15.220;2022-08-18T02:11:32;17.40;1.40
11059;DHT22;5582;59.272;15.220;2022-08-18T02:13:59;17.40;1.40
11059;DHT22;5582;59.272;15.220;2022-08-18T02:16:24;17.40;1.40
11059;DHT22;5582;59.272;15.220;2022-08-18T02:18:50;17.40;1.40
11059;DHT22;5582;59.272;15.220;2022-08-18T02:21:18;17.30;1.40
11059;DHT22;5582;59.272;15.220;2022-08-18T02:23:44;17.30;1.40
11059;DHT22;5582;59.272;15.220;2022-08-18T02:26:13;17.30;1.40
11059;DHT22;5582;59.272;15.220;2022-08-18T02:28:40;17.30;1.40
11059;DHT22;5582;59.272;15.220;2022-08-18T02:31:07;17.30;1.40
11059;DHT22;5582;59.272;15.220;2022-08-18T02:33:33;17.30;1.40
11059;DHT22;5582;59.272;15.220;2022-08-18T02:35:59;17.30;1.40
11059;DHT22;5582;59.272;15.220;2022-08-18T02:38:25;17.20;1.40
11059;DHT22;5582;59.272;15.220;2022-08-18T02:40:59;17.20;1.40
11059;DHT22;5582;59.272;15.220;2022-08-18T02:43:25;17.20;1.40
11059;DHT22;5582;59.272;15.220;2022-08-18T02:45:51;17.10;1.40
11059;DHT22;5582;59.272;15.220;2022-08-18T02:48:17;17.10;1.40
11059;DHT22;5582;59.272;15.220;2022-08-18T02:50:59;17.10;1.40
11059;DHT22;5582;59.272;15.220;2022-08-18T02:53:25;17.00;1.40
11059;DHT22;5582;59.272;15.220;2022-08-18T02:55:53;17.00;1.40
11059;DHT22;5582;59.272;15.220;2022-08-18T02:58:19;17.00;1.40
11059;DHT22;5582;59.272;15.220;2022-08-18T03:00:44;16.90;1.40
11059;DHT22;5582;59.272;15.220;2022-08-18T03:03:10;16.90;1.40
11059;DHT22;5582;59.272;15.220;2022-08-18T03:05:38;16.90;1.40
11059;DHT22;5582;59.272;15.220;2022-08-18T03:08:04;16.80;1.40
11059;DHT22;5582;59.272;15.220;2022-08-18T03:10:29;16.80;1.40
11059;DHT22;5582;59.272;15.220;2022-08-18T03:12:55;16.80;1.40
11059;DHT22;5582;59.272;15.220;2022-08-18T03:15:21;16.70;1.40
11059;DHT22;5582;59.272;15.220;2022-08-18T03:17:46;16.70;1.40
11059;DHT22;5582;59.272;15.220;2022-08-18T03:20:12;16.70;1.40
11059;DHT22;5582;59.272;15.220;2022-08-18T03:22:38;16.70;1.40
11059;DHT22;5582;59.272;15.220;2022-08-18T03:25:04;16.70;1.40
11059;DHT22;5582;59.272;15.220;2022-08-18T03:27:30;16.60;1.40
11059;DHT22;5582;59.272;15.220;2022-08-18T03:29:55;16.60;1.40
11059;DHT22;5582;59.272;15.220;2022-08-18T03:32:21;16.60;1.40
11059;DHT22;5582;59.272;15.220;2022-08-18T03:34:47;16.60;1.40
11059;DHT22;5582;59.272;15.220;2022-08-18T03:37:13;16.60;1.40
11059;DHT22;5582;59.272;15.220;2022-08-18T03:39:40;16.60;1.40
11059;DHT22;5582;59.272;15.220;2022-08-18T03:42:06;16.60;1.40
11059;DHT22;5582;59.272;15.220;2022-08-18T03:44:33;16.60;1.40
11059;DHT22;5582;59.272;15.220;2022-08-18T03:47:01;16.60;1.40
11059;DHT22;5582;59.272;15.220;2022-08-18T03:49:28;16.60;1.40
11059;DHT22;5582;59.272;15.220;2022-08-18T03:51:54;16.60;1.40
11059;DHT22;5582;59.272;15.220;2022-08-18T03:54:21;16.60;1.40
11059;DHT22;5582;59.272;15.220;2022-08-18T03:56:47;16.60;1.40
11059;DHT22;5582;59.272;15.220;2022-08-18T03:59:16;16.60;1.40
11059;DHT22;5582;59.272;15.220;2022-08-18T21:03:14;21.70;1.40
11059;DHT22;5582;59.272;15.220;2022-08-18T21:05:42;20.50;1.40
11059;DHT22;5582;59.272;15.220;2022-08-18T21:11:23;20.20;1.40
11059;DHT22;5582;59.272;15.220;2022-08-18T21:13:52;20.00;1.40
11059;DHT22;5582;59.272;15.220;2022-08-18T21:18:50;19.80;1.40
11059;DHT22;5582;59.272;15.220;2022-08-18T21:21:45;19.60;1.40
11059;DHT22;5582;59.272;15.220;2022-08-18T21:24:42;19.50;1.40
11059;DHT22;5582;59.272;15.220;2022-08-18T21:27:24;19.50;1.40
11059;DHT22;5582;59.272;15.220;2022-08-18T21:29:52;19.40;1.40
11059;DHT22;5582;59.272;15.220;2022-08-18T21:32:22;19.40;1.40
11059;DHT22;5582;59.272;15.220;2022-08-18T21:34:51;19.30;1.40
11059;DHT22;5582;59.272;15.220;2022-08-18T21:37:18;19.30;1.40
11059;DHT22;5582;59.272;15.220;2022-08-18T21:39:55;19.20;1.40
11059;DHT22;5582;59.272;15.220;2022-08-18T21:42:41;19.20;1.40
11059;DHT22;5582;59.272;15.220;2022-08-18T21:45:14;19.10;1.40
11059;DHT22;5582;59.272;15.220;2022-08-18T21:47:47;19.10;1.40
11059;DHT22;5582;59.272;15.220;2022-08-18T21:50:17;19.10;1.40
11059;DHT22;5582;59.272;15.220;2022-08-18T21:58:08;19.00;1.40
11059;DHT22;5582;59.272;15.220;2022-08-18T22:00:47;19.00;1.40
11059;DHT22;5582;59.272;15.220;2022-08-18T22:03:31;19.00;1.40
11059;DHT22;5582;59.272;15.220;2022-08-18T22:06:16;19.00;1.40
11059;DHT22;5582;59.272;15.220;2022-08-18T22:17:57;19.10;1.40
11059;DHT22;5582;59.272;15.220;2022-08-18T22:25:48;19.10;1.40
11059;DHT22;5582;59.272;15.220;2022-08-18T22:28:20;19.20;1.40
11059;DHT22;5582;59.272;15.220;2022-08-18T22:30:46;19.20;1.40
11059;DHT22;5582;59.272;15.220;2022-08-18T22:33:12;19.20;1.40
11059;DHT22;5582;59.272;15.220;2022-08-18T22:35:38;19.20;1.40
11059;DHT22;5582;59.272;15.220;2022-08-18T22:38:04;19.20;1.40
11059;DHT22;5582;59.272;15.220;2022-08-18T22:40:29;19.20;1.40
11059;DHT22;5582;59.272;15.220;2022-08-18T22:42:55;19.30;1.40
11059;DHT22;5582;59.272;15.220;2022-08-18T22:45:21;19.20;1.40
11059;DHT22;5582;59.272;15.220;2022-08-18T22:47:47;19.20;1.40
11059;DHT22;5582;59.272;15.220;2022-08-18T22:50:13;19.20;1.40
11059;DHT22;5582;59.272;15.220;2022-08-18T22:52:43;19.20;1.40
11059;DHT22;5582;59.272;15.220;2022-08-18T22:55:11;19.10;1.40
11059;DHT22;5582;59.272;15.220;2022-08-18T22:57:38;19.10;1.40
11059;DHT22;5582;59.272;15.220;2022-08-18T23:00:10;19.20;1.40
11059;DHT22;5582;59.272;15.220;2022-08-18T23:02:36;19.20;1.40
11059;DHT22;5582;59.272;15.220;2022-08-18T23:05:03;19.20;1.40
11059;DHT22;5582;59.272;15.220;2022-08-18T23:07:29;19.30;1.40
11059;DHT22;5582;59.272;15.220;2022-08-18T23:09:56;19.30;1.40
11059;DHT22;5582;59.272;15.220;2022-08-18T23:12:22;19.40;1.40
11059;DHT22;5582;59.272;15.220;2022-08-18T23:14:48;19.40;1.40
11059;DHT22;5582;59.272;15.220;2022-08-18T23:17:14;19.40;1.40
11059;DHT22;5582;59.272;15.220;2022-08-18T23:19:40;19.40;1.40
11059;DHT22;5582;59.272;15.220;2022-08-18T23:22:07;19.40;1.40
11059;DHT22;5582;59.272;15.220;2022-08-18T23:24:34;19.40;1.40
11059;DHT22;5582;59.272;15.220;2022-08-18T23:27:00;19.50;1.40
11059;DHT22;5582;59.272;15.220;2022-08-18T23:29:26;19.50;1.40
11059;DHT22;5582;59.272;15.220;2022-08-18T23:31:52;19.50;1.40
11059;DHT22;5582;59.272;15.220;2022-08-18T23:34:20;19.60;1.40
11059;DHT22;5582;59.272;15.220;2022-08-18T23:36:55;19.50;1.40
11059;DHT22;5582;59.272;15.220;2022-08-18T23:39:23;19.60;1.40
11059;DHT22;5582;59.272;15.220;2022-08-18T23:41:49;19.60;1.40
11059;DHT22;5582;59.272;15.220;2022-08-18T23:44:17;19.60;1.40
11059;DHT22;5582;59.272;15.220;2022-08-18T23:46:43;19.60;1.40
11059;DHT22;5582;59.272;15.220;2022-08-18T23:49:09;19.60;1.40
11059;DHT22;5582;59.272;15.220;2022-08-18T23:51:41;19.70;1.40
11059;DHT22;5582;59.272;15.220;2022-08-18T23:54:13;19.70;1.40
11059;DHT22;5582;59.272;15.220;2022-08-18T23:56:39;19.70;1.40
11059;DHT22;5582;59.272;15.220;2022-08-18T23:59:07;19.70;1.40
